Time;durP1;ratioP1;P1;durP2;ratioP2;P2;SDS_P1;SDS_P2;PMS_P1;PMS_P2;Temp;Humidity;BMP_temperature;BMP_pressure;BME280_temperature;BME280_humidity;BME280_pressure;Samples;Min_cycle;Max_cycle;Signal;HPM_P1;HPM_P2
2024/01/26 00:00:58;;;;;;;2.85;1.20;;;;;;;;;;4996931;28;20045;-62
2024/01/26 00:03:23;;;;;;;2.22;1.02;;;;;;;;;;5015151;28;20042;-62
2024/01/26 00:05:48;;;;;;;2.72;1.13;;;;;;;;;;5011532;28;20474;-61
2024/01/26 00:08:15;;;;;;;2.60;1.27;;;;;;;;;;5009780;28;20117;-61
2024/01/26 00:10:40;;;;;;;3.13;1.13;;;;;;;;;;5009458;28;20038;-62
2024/01/26 00:13:05;;;;;;;2.10;0.95;;;;;;;;;;5013294;28;20096;-62
2024/01/26 00:15:31;;;;;;;2.22;0.85;;;;;;;;;;5013962;28;20029;-61
2024/01/26 00:17:56;;;;;;;3.15;1.13;;;;;;;;;;5022120;28;20441;-62
2024/01/26 00:20:21;;;;;;;2.10;1.10;;;;;;;;;;5025422;28;20052;-63
2024/01/26 00:22:47;;;;;;;2.15;1.00;;;;;;;;;;5013195;28;20044;-62
2024/01/26 00:25:12;;;;;;;2.35;1.17;;;;;;;;;;5020984;28;20034;-63
2024/01/26 00:27:38;;;;;;;2.30;1.10;;;;;;;;;;5006562;28;20034;-62
2024/01/26 00:30:04;;;;;;;2.00;1.00;;;;;;;;;;5008268;28;20137;-62
2024/01/26 00:32:29;;;;;;;3.03;1.20;;;;;;;;;;5010795;28;20030;-62
2024/01/26 00:34:54;;;;;;;2.13;1.02;;;;;;;;;;5016160;28;20113;-62
2024/01/26 00:37:20;;;;;;;2.38;1.15;;;;;;;;;;5016363;28;20096;-63
2024/01/26 00:39:45;;;;;;;1.80;0.75;;;;;;;;;;5012663;28;20177;-66
2024/01/26 00:42:11;;;;;;;2.20;1.05;;;;;;;;;;5014835;28;20053;-65
2024/01/26 00:44:37;;;;;;;2.58;1.10;;;;;;;;;;5014776;28;20041;-62
2024/01/26 00:47:03;;;;;;;2.08;1.00;;;;;;;;;;5005436;28;20525;-62
2024/01/26 00:49:29;;;;;;;2.03;0.93;;;;;;;;;;5014574;28;20042;-63
2024/01/26 00:51:55;;;;;;;1.80;0.95;;;;;;;;;;5009731;28;20244;-65
2024/01/26 00:54:20;;;;;;;2.88;1.25;;;;;;;;;;5009984;28;20057;-62
2024/01/26 00:56:46;;;;;;;2.45;0.90;;;;;;;;;;5010239;28;20049;-65
2024/01/26 00:59:11;;;;;;;1.95;0.80;;;;;;;;;;5015909;28;20052;-65
2024/01/26 01:01:36;;;;;;;2.47;0.95;;;;;;;;;;5010647;28;20503;-62
2024/01/26 01:04:02;;;;;;;2.63;1.00;;;;;;;;;;5009804;28;20839;-64
2024/01/26 01:06:27;;;;;;;1.65;0.70;;;;;;;;;;5019008;28;20236;-63
2024/01/26 01:08:52;;;;;;;1.98;0.90;;;;;;;;;;5017896;28;20479;-66
2024/01/26 01:11:18;;;;;;;1.88;0.93;;;;;;;;;;5021756;28;20433;-63
2024/01/26 01:13:43;;;;;;;2.42;0.90;;;;;;;;;;5022754;28;20499;-63
2024/01/26 01:16:12;;;;;;;2.38;1.15;;;;;;;;;;5013499;28;20030;-65
2024/01/26 01:18:37;;;;;;;1.98;0.80;;;;;;;;;;5016355;28;20037;-66
2024/01/26 01:21:04;;;;;;;1.65;0.93;;;;;;;;;;5006005;28;20108;-65
2024/01/26 01:23:30;;;;;;;2.17;1.05;;;;;;;;;;5010500;28;20033;-63
2024/01/26 01:25:55;;;;;;;2.15;1.20;;;;;;;;;;5014838;28;20038;-63
2024/01/26 01:28:20;;;;;;;1.85;1.00;;;;;;;;;;5017517;28;20479;-63
2024/01/26 01:30:45;;;;;;;2.75;0.90;;;;;;;;;;5016398;28;20041;-63
2024/01/26 01:33:11;;;;;;;2.50;0.88;;;;;;;;;;5011907;28;20077;-65
2024/01/26 01:35:36;;;;;;;2.03;1.00;;;;;;;;;;5011078;28;20056;-63
2024/01/26 01:38:01;;;;;;;1.90;0.88;;;;;;;;;;5016335;28;20750;-65
2024/01/26 01:40:27;;;;;;;2.58;1.00;;;;;;;;;;5012592;28;20496;-64
2024/01/26 01:42:52;;;;;;;1.73;0.93;;;;;;;;;;5019090;28;20453;-65
2024/01/26 01:45:17;;;;;;;1.65;0.82;;;;;;;;;;5021786;28;20029;-65
2024/01/26 01:47:43;;;;;;;2.20;1.23;;;;;;;;;;5010535;28;20044;-65
2024/01/26 01:50:08;;;;;;;2.63;1.00;;;;;;;;;;5017999;28;20107;-65
2024/01/26 01:52:34;;;;;;;2.45;0.90;;;;;;;;;;5019982;28;20030;-63
2024/01/26 01:54:59;;;;;;;1.52;0.80;;;;;;;;;;5017439;28;20082;-63
2024/01/26 01:57:25;;;;;;;2.13;0.90;;;;;;;;;;5033894;28;20032;-62
2024/01/26 01:59:50;;;;;;;2.63;1.00;;;;;;;;;;5024110;28;20044;-62
2024/01/26 02:02:15;;;;;;;1.63;0.65;;;;;;;;;;5024927;28;20037;-64
2024/01/26 02:04:41;;;;;;;2.03;0.88;;;;;;;;;;5024547;28;20428;-62
2024/01/26 02:07:06;;;;;;;1.80;0.90;;;;;;;;;;5020759;28;20136;-65
2024/01/26 02:09:31;;;;;;;1.58;0.80;;;;;;;;;;5021756;28;20080;-64
2024/01/26 02:11:57;;;;;;;1.90;0.93;;;;;;;;;;5027841;28;20034;-62
2024/01/26 02:14:23;;;;;;;1.98;0.93;;;;;;;;;;4996066;28;20041;-65
2024/01/26 02:16:58;;;;;;;2.10;0.93;;;;;;;;;;5028701;28;20037;-65
2024/01/26 02:19:24;;;;;;;1.92;1.08;;;;;;;;;;5032310;28;20038;-62
2024/01/26 02:21:49;;;;;;;1.95;1.00;;;;;;;;;;5011793;28;20026;-65
2024/01/26 02:24:15;;;;;;;2.03;1.13;;;;;;;;;;5016473;28;20524;-64
2024/01/26 02:26:40;;;;;;;3.20;1.08;;;;;;;;;;5019450;28;20038;-65
2024/01/26 02:29:06;;;;;;;1.58;0.90;;;;;;;;;;5020852;28;20034;-65
2024/01/26 02:31:31;;;;;;;2.70;0.90;;;;;;;;;;5009794;28;20030;-66
2024/01/26 02:33:56;;;;;;;2.75;0.95;;;;;;;;;;5009668;28;20048;-65
2024/01/26 02:36:22;;;;;;;1.98;0.80;;;;;;;;;;5012387;28;20111;-65
2024/01/26 02:38:47;;;;;;;1.85;0.80;;;;;;;;;;5011818;28;20049;-66
2024/01/26 02:41:12;;;;;;;2.20;0.90;;;;;;;;;;5014562;28;20431;-66
2024/01/26 02:43:37;;;;;;;1.88;0.80;;;;;;;;;;4999950;28;20096;-66
2024/01/26 02:46:09;;;;;;;2.15;0.80;;;;;;;;;;4991730;28;20041;-63
2024/01/26 02:48:35;;;;;;;2.45;1.02;;;;;;;;;;4991972;28;20104;-65
2024/01/26 02:51:00;;;;;;;2.22;0.80;;;;;;;;;;4994300;28;20488;-63
2024/01/26 02:53:26;;;;;;;2.00;0.80;;;;;;;;;;5013796;28;20517;-65
2024/01/26 02:55:51;;;;;;;2.70;0.93;;;;;;;;;;5027316;28;20046;-66
2024/01/26 02:58:16;;;;;;;1.83;0.77;;;;;;;;;;5018095;28;20037;-63
2024/01/26 03:00:42;;;;;;;2.33;0.95;;;;;;;;;;5027826;28;20098;-63
2024/01/26 03:03:07;;;;;;;2.22;1.00;;;;;;;;;;5006509;28;20105;-63
2024/01/26 03:05:33;;;;;;;1.65;0.80;;;;;;;;;;5009680;28;20038;-62
2024/01/26 03:07:58;;;;;;;2.22;0.90;;;;;;;;;;5018303;28;20511;-64
2024/01/26 03:10:23;;;;;;;1.60;0.90;;;;;;;;;;5022478;28;20038;-65
2024/01/26 03:12:49;;;;;;;2.20;0.82;;;;;;;;;;5009170;28;20062;-64
2024/01/26 03:15:14;;;;;;;1.58;0.68;;;;;;;;;;5010830;28;20042;-64
2024/01/26 03:17:39;;;;;;;2.25;0.90;;;;;;;;;;5012470;28;20026;-64
2024/01/26 03:20:05;;;;;;;2.17;1.00;;;;;;;;;;5029449;28;20033;-66
2024/01/26 03:22:30;;;;;;;2.00;0.98;;;;;;;;;;5017342;28;20057;-65
2024/01/26 03:24:55;;;;;;;2.35;1.00;;;;;;;;;;5015656;28;20124;-62
2024/01/26 03:27:21;;;;;;;2.45;1.08;;;;;;;;;;5022179;28;20460;-64
2024/01/26 03:29:46;;;;;;;1.63;0.70;;;;;;;;;;5017649;28;20042;-65
2024/01/26 03:32:11;;;;;;;1.90;1.00;;;;;;;;;;5014949;28;20076;-66
2024/01/26 03:34:37;;;;;;;2.58;0.88;;;;;;;;;;5027104;28;20781;-64
2024/01/26 03:37:02;;;;;;;1.95;1.05;;;;;;;;;;5020304;28;20030;-65
2024/01/26 03:39:27;;;;;;;2.08;1.00;;;;;;;;;;5006555;28;20124;-66
2024/01/26 03:41:53;;;;;;;2.17;0.82;;;;;;;;;;5009429;28;20033;-67
2024/01/26 03:44:18;;;;;;;1.45;0.80;;;;;;;;;;5008991;28;20034;-67
2024/01/26 03:46:43;;;;;;;3.17;1.00;;;;;;;;;;5008043;28;20092;-66
2024/01/26 03:49:09;;;;;;;2.15;0.90;;;;;;;;;;5007266;28;20487;-65
2024/01/26 03:51:35;;;;;;;3.22;0.93;;;;;;;;;;5008231;28;20050;-66
2024/01/26 03:54:00;;;;;;;2.67;1.02;;;;;;;;;;5012646;28;20453;-66
2024/01/26 03:56:26;;;;;;;2.05;0.80;;;;;;;;;;5007682;28;20119;-61
2024/01/26 03:58:52;;;;;;;1.75;0.95;;;;;;;;;;4987994;28;20063;-62
2024/01/26 04:01:19;;;;;;;2.00;0.85;;;;;;;;;;4987351;28;20694;-61
2024/01/26 04:03:44;;;;;;;2.42;0.93;;;;;;;;;;4990494;28;20034;-59
2024/01/26 04:06:09;;;;;;;2.13;0.90;;;;;;;;;;5002679;28;20046;-66
2024/01/26 04:08:34;;;;;;;3.05;0.90;;;;;;;;;;4994677;28;20038;-61
2024/01/26 04:11:00;;;;;;;2.05;0.75;;;;;;;;;;5006035;28;20427;-62
2024/01/26 04:13:25;;;;;;;1.98;0.98;;;;;;;;;;4997977;28;20165;-66
2024/01/26 04:15:50;;;;;;;2.42;0.85;;;;;;;;;;4994870;28;20049;-66
2024/01/26 04:18:16;;;;;;;2.40;0.98;;;;;;;;;;4994520;28;20100;-65
2024/01/26 04:20:41;;;;;;;1.48;0.70;;;;;;;;;;4993112;28;20073;-65
2024/01/26 04:23:06;;;;;;;2.38;0.85;;;;;;;;;;5002668;28;20117;-66
2024/01/26 04:25:31;;;;;;;2.67;0.95;;;;;;;;;;4994144;28;20037;-62
2024/01/26 04:27:57;;;;;;;2.45;0.88;;;;;;;;;;4991894;28;20718;-62
2024/01/26 04:30:22;;;;;;;1.83;0.80;;;;;;;;;;4990390;28;20042;-65
2024/01/26 04:32:48;;;;;;;2.42;0.98;;;;;;;;;;5004368;28;20049;-65
2024/01/26 04:35:13;;;;;;;2.08;0.73;;;;;;;;;;4990723;28;20050;-61
2024/01/26 04:37:38;;;;;;;2.60;0.77;;;;;;;;;;4991294;28;20038;-60
2024/01/26 04:40:04;;;;;;;2.05;0.70;;;;;;;;;;4999115;28;20125;-61
2024/01/26 04:42:29;;;;;;;1.35;0.60;;;;;;;;;;4990679;28;20484;-62
2024/01/26 04:44:56;;;;;;;1.63;0.80;;;;;;;;;;4989309;28;20535;-61
2024/01/26 04:47:21;;;;;;;1.40;0.73;;;;;;;;;;4988224;28;20030;-60
2024/01/26 04:49:46;;;;;;;1.77;0.85;;;;;;;;;;4988182;28;21489;-62
2024/01/26 04:52:12;;;;;;;1.40;0.60;;;;;;;;;;4989090;28;20046;-64
2024/01/26 04:54:37;;;;;;;1.70;0.70;;;;;;;;;;4986884;28;20050;-62
2024/01/26 04:57:03;;;;;;;2.10;1.02;;;;;;;;;;4993367;28;20042;-64
2024/01/26 04:59:28;;;;;;;1.50;0.68;;;;;;;;;;4990009;28;20786;-60
2024/01/26 05:01:54;;;;;;;1.65;0.70;;;;;;;;;;4998283;28;20026;-60
2024/01/26 05:04:19;;;;;;;2.50;0.80;;;;;;;;;;4990866;28;22261;-60
2024/01/26 05:06:44;;;;;;;2.00;0.85;;;;;;;;;;4989594;28;20062;-60
2024/01/26 05:09:11;;;;;;;3.00;1.00;;;;;;;;;;4989642;28;20046;-60
2024/01/26 05:11:36;;;;;;;2.08;0.75;;;;;;;;;;4987342;28;20665;-60
2024/01/26 05:14:02;;;;;;;1.83;0.73;;;;;;;;;;4988403;28;20071;-61
2024/01/26 05:16:27;;;;;;;1.83;0.73;;;;;;;;;;5004093;28;20469;-60
2024/01/26 05:18:53;;;;;;;2.25;0.60;;;;;;;;;;4992359;28;20088;-60
2024/01/26 05:21:18;;;;;;;1.92;0.82;;;;;;;;;;4992465;28;20113;-59
2024/01/26 05:23:43;;;;;;;1.75;0.90;;;;;;;;;;4990377;28;20080;-59
2024/01/26 05:26:09;;;;;;;1.25;0.73;;;;;;;;;;5000804;28;20084;-64
2024/01/26 05:28:35;;;;;;;1.88;0.98;;;;;;;;;;5000759;28;20136;-59
2024/01/26 05:31:01;;;;;;;1.88;0.70;;;;;;;;;;4997483;28;20073;-58
2024/01/26 05:33:26;;;;;;;2.55;0.85;;;;;;;;;;4988841;28;20838;-59
2024/01/26 05:35:51;;;;;;;2.13;0.80;;;;;;;;;;4989386;28;20021;-59
2024/01/26 05:38:17;;;;;;;1.83;0.70;;;;;;;;;;5002724;28;20030;-65
2024/01/26 05:40:42;;;;;;;2.03;0.88;;;;;;;;;;4988694;28;20065;-61
2024/01/26 05:43:08;;;;;;;1.38;0.57;;;;;;;;;;4988300;28;20019;-58
2024/01/26 05:45:34;;;;;;;1.50;0.73;;;;;;;;;;4987728;28;20109;-59
2024/01/26 05:47:59;;;;;;;1.95;0.90;;;;;;;;;;4989068;28;20065;-60
2024/01/26 05:50:24;;;;;;;1.40;0.60;;;;;;;;;;4991918;28;20437;-58
2024/01/26 05:52:49;;;;;;;1.77;0.90;;;;;;;;;;4994112;28;20025;-58
2024/01/26 05:55:15;;;;;;;1.75;0.80;;;;;;;;;;4995731;28;20053;-59
2024/01/26 05:57:40;;;;;;;2.50;0.70;;;;;;;;;;4988949;28;20112;-59
2024/01/26 06:00:06;;;;;;;1.52;0.77;;;;;;;;;;4990879;28;20441;-64
2024/01/26 06:02:31;;;;;;;1.75;0.90;;;;;;;;;;4992732;28;20022;-60
2024/01/26 06:04:57;;;;;;;2.03;0.85;;;;;;;;;;4990180;28;21970;-60
2024/01/26 06:07:22;;;;;;;1.60;0.60;;;;;;;;;;4992468;28;20054;-60
2024/01/26 06:09:47;;;;;;;2.67;0.70;;;;;;;;;;4989714;28;20105;-60
2024/01/26 06:12:13;;;;;;;5.78;0.90;;;;;;;;;;4999795;28;20026;-58
2024/01/26 06:14:38;;;;;;;1.30;0.63;;;;;;;;;;4991772;28;20424;-57
2024/01/26 06:17:03;;;;;;;1.80;0.63;;;;;;;;;;4998807;28;20112;-56
2024/01/26 06:19:28;;;;;;;1.85;0.73;;;;;;;;;;4998881;28;20061;-56
2024/01/26 06:21:54;;;;;;;1.75;0.65;;;;;;;;;;4992693;28;20113;-57
2024/01/26 06:24:19;;;;;;;1.90;0.80;;;;;;;;;;4997655;28;21608;-56
2024/01/26 06:26:44;;;;;;;1.63;0.50;;;;;;;;;;4996068;28;20018;-57
2024/01/26 06:29:09;;;;;;;1.73;0.70;;;;;;;;;;4995582;28;20171;-56
2024/01/26 06:31:35;;;;;;;2.42;0.80;;;;;;;;;;4991109;28;20140;-63
2024/01/26 06:34:00;;;;;;;1.73;0.70;;;;;;;;;;4992885;28;20504;-60
2024/01/26 06:36:25;;;;;;;1.73;0.70;;;;;;;;;;4992613;28;20033;-58
2024/01/26 06:38:51;;;;;;;1.58;0.70;;;;;;;;;;4993108;28;20021;-57
2024/01/26 06:41:16;;;;;;;1.63;0.73;;;;;;;;;;5005135;28;20049;-56
2024/01/26 06:43:41;;;;;;;2.05;0.88;;;;;;;;;;4998054;28;20027;-57
2024/01/26 06:46:07;;;;;;;2.38;0.80;;;;;;;;;;4996375;28;20041;-60
2024/01/26 06:48:33;;;;;;;2.13;0.60;;;;;;;;;;4997698;28;20025;-58
2024/01/26 06:50:58;;;;;;;1.83;0.70;;;;;;;;;;4995211;28;20481;-56
2024/01/26 06:53:23;;;;;;;1.25;0.52;;;;;;;;;;4994047;28;20034;-56
2024/01/26 06:55:48;;;;;;;2.33;0.65;;;;;;;;;;4993959;28;20037;-57
2024/01/26 06:58:14;;;;;;;1.65;0.75;;;;;;;;;;4993217;28;20397;-57
2024/01/26 07:00:39;;;;;;;0.98;0.68;;;;;;;;;;4992412;28;20136;-61
2024/01/26 07:03:04;;;;;;;2.53;0.75;;;;;;;;;;4989834;28;20955;-59
2024/01/26 07:05:30;;;;;;;1.40;0.70;;;;;;;;;;4994077;28;20045;-56
2024/01/26 07:07:56;;;;;;;3.03;0.73;;;;;;;;;;4994566;28;20018;-57
2024/01/26 07:10:22;;;;;;;1.42;0.70;;;;;;;;;;4995265;28;20025;-59
2024/01/26 07:12:47;;;;;;;1.92;0.68;;;;;;;;;;5001869;28;20097;-56
2024/01/26 07:15:12;;;;;;;4.25;0.77;;;;;;;;;;4997006;28;20030;-55
2024/01/26 07:17:38;;;;;;;1.30;0.65;;;;;;;;;;4991159;28;20023;-55
2024/01/26 07:20:03;;;;;;;1.60;0.60;;;;;;;;;;4994467;28;20026;-56
2024/01/26 07:22:29;;;;;;;1.23;0.70;;;;;;;;;;4993123;28;22313;-57
2024/01/26 07:24:54;;;;;;;1.63;0.68;;;;;;;;;;4997009;28;20046;-56
2024/01/26 07:27:20;;;;;;;2.65;0.70;;;;;;;;;;4993144;28;20480;-57
2024/01/26 07:29:47;;;;;;;1.70;0.60;;;;;;;;;;5005511;28;20041;-56
2024/01/26 07:32:12;;;;;;;4.47;0.70;;;;;;;;;;4992404;28;20042;-55
2024/01/26 07:34:37;;;;;;;1.67;0.57;;;;;;;;;;4992029;28;20374;-59
2024/01/26 07:37:03;;;;;;;2.05;0.73;;;;;;;;;;4993669;28;20625;-57
2024/01/26 07:39:28;;;;;;;1.58;0.47;;;;;;;;;;4998776;28;20057;-58
2024/01/26 07:41:54;;;;;;;2.20;0.88;;;;;;;;;;4991429;28;20104;-57
2024/01/26 07:44:19;;;;;;;3.83;1.00;;;;;;;;;;4992416;28;20052;-56
2024/01/26 07:46:44;;;;;;;2.42;0.93;;;;;;;;;;4991876;28;20716;-59
2024/01/26 07:49:09;;;;;;;1.95;0.80;;;;;;;;;;4995462;28;20488;-59
2024/01/26 07:51:35;;;;;;;2.47;0.73;;;;;;;;;;4997979;28;20057;-55
2024/01/26 07:54:00;;;;;;;1.50;0.70;;;;;;;;;;4990035;28;20093;-55
2024/01/26 07:56:25;;;;;;;1.52;0.52;;;;;;;;;;4990008;28;20045;-55
2024/01/26 07:58:50;;;;;;;1.38;0.50;;;;;;;;;;4990504;28;20046;-59
2024/01/26 08:01:16;;;;;;;2.08;0.70;;;;;;;;;;4994480;28;20030;-57
2024/01/26 08:03:41;;;;;;;1.13;0.50;;;;;;;;;;5003934;28;20081;-57
2024/01/26 08:06:07;;;;;;;1.80;0.52;;;;;;;;;;4991693;28;20965;-57
2024/01/26 08:08:32;;;;;;;1.15;0.60;;;;;;;;;;4993750;28;20188;-58
2024/01/26 08:10:58;;;;;;;2.00;0.77;;;;;;;;;;4991478;28;20050;-57
2024/01/26 08:13:23;;;;;;;1.80;0.60;;;;;;;;;;5022687;28;20063;-57
2024/01/26 08:15:48;;;;;;;1.73;0.73;;;;;;;;;;4990407;28;20184;-54
2024/01/26 08:18:14;;;;;;;1.50;0.50;;;;;;;;;;4990875;28;20060;-57
2024/01/26 08:20:39;;;;;;;1.75;0.70;;;;;;;;;;4999529;28;20034;-55
2024/01/26 08:23:05;;;;;;;1.90;0.70;;;;;;;;;;5005844;28;20491;-56
2024/01/26 08:25:31;;;;;;;1.73;0.68;;;;;;;;;;4996539;28;20044;-57
2024/01/26 08:27:57;;;;;;;2.70;0.90;;;;;;;;;;4996527;28;20439;-55
2024/01/26 08:30:23;;;;;;;2.08;0.70;;;;;;;;;;4998862;28;20033;-57
2024/01/26 08:32:49;;;;;;;2.45;0.60;;;;;;;;;;4993255;28;20058;-56
2024/01/26 08:35:14;;;;;;;2.05;0.60;;;;;;;;;;4992877;28;20159;-56
2024/01/26 08:37:39;;;;;;;2.58;0.70;;;;;;;;;;4993640;28;20576;-56
2024/01/26 08:40:18;;;;;;;1.90;0.65;;;;;;;;;;4996627;28;20034;-60
2024/01/26 08:42:44;;;;;;;1.70;0.70;;;;;;;;;;4995736;28;20144;-58
2024/01/26 08:45:09;;;;;;;4.28;0.75;;;;;;;;;;4997810;28;20121;-56
2024/01/26 08:47:35;;;;;;;1.52;0.60;;;;;;;;;;4995420;28;20129;-56
2024/01/26 08:50:00;;;;;;;1.65;0.50;;;;;;;;;;5012944;28;20037;-56
2024/01/26 08:52:25;;;;;;;2.45;0.80;;;;;;;;;;5003829;28;20034;-57
2024/01/26 08:54:51;;;;;;;2.53;0.60;;;;;;;;;;5007398;28;20053;-56
2024/01/26 08:57:16;;;;;;;1.35;0.75;;;;;;;;;;5005419;28;20037;-58
2024/01/26 08:59:43;;;;;;;1.90;0.70;;;;;;;;;;5008313;28;20092;-58
2024/01/26 09:02:09;;;;;;;1.70;0.40;;;;;;;;;;5003184;28;20427;-57
2024/01/26 09:04:34;;;;;;;1.05;0.45;;;;;;;;;;5015082;28;20030;-56
2024/01/26 09:06:59;;;;;;;1.45;0.65;;;;;;;;;;5007949;28;20050;-60
2024/01/26 09:09:25;;;;;;;1.92;0.60;;;;;;;;;;5006992;28;20030;-58
2024/01/26 09:11:51;;;;;;;1.95;0.57;;;;;;;;;;5007838;28;20037;-56
2024/01/26 09:14:17;;;;;;;1.95;0.52;;;;;;;;;;5004893;28;20431;-57
2024/01/26 09:16:42;;;;;;;2.40;0.60;;;;;;;;;;5015034;28;20034;-55
2024/01/26 09:19:08;;;;;;;1.45;0.40;;;;;;;;;;5003613;28;20638;-56
2024/01/26 09:21:33;;;;;;;1.95;0.70;;;;;;;;;;4995136;28;20038;-54
2024/01/26 09:23:59;;;;;;;1.60;0.70;;;;;;;;;;5006256;28;20034;-54
2024/01/26 09:26:25;;;;;;;2.33;0.75;;;;;;;;;;4996224;28;20109;-58
2024/01/26 09:28:50;;;;;;;1.98;0.70;;;;;;;;;;5004270;28;20084;-60
2024/01/26 09:31:15;;;;;;;2.25;0.73;;;;;;;;;;5006029;28;20060;-57
2024/01/26 09:33:40;;;;;;;1.33;0.50;;;;;;;;;;5007245;28;20037;-57
2024/01/26 09:36:06;;;;;;;1.52;0.57;;;;;;;;;;5005596;28;20042;-56
2024/01/26 09:38:31;;;;;;;1.27;0.50;;;;;;;;;;5007350;28;20568;-58
2024/01/26 09:40:56;;;;;;;1.17;0.40;;;;;;;;;;4998782;28;20045;-58
2024/01/26 09:43:22;;;;;;;1.50;0.57;;;;;;;;;;5007202;28;20041;-57
2024/01/26 09:45:49;;;;;;;1.90;0.70;;;;;;;;;;5007192;28;20048;-58
2024/01/26 09:48:14;;;;;;;1.58;0.60;;;;;;;;;;5007380;28;20412;-55
2024/01/26 09:50:40;;;;;;;1.70;0.60;;;;;;;;;;5009090;28;20048;-56
2024/01/26 09:53:05;;;;;;;1.50;0.57;;;;;;;;;;5006889;28;20038;-58
2024/01/26 09:55:33;;;;;;;1.63;0.63;;;;;;;;;;5008872;28;20099;-58
2024/01/26 09:57:59;;;;;;;1.88;0.50;;;;;;;;;;5007319;28;20057;-58
2024/01/26 10:00:24;;;;;;;1.95;0.70;;;;;;;;;;5010498;28;20029;-57
2024/01/26 10:02:49;;;;;;;2.22;0.70;;;;;;;;;;5010510;28;20116;-57
2024/01/26 10:05:16;;;;;;;2.13;0.70;;;;;;;;;;4997932;28;20030;-57
2024/01/26 10:07:41;;;;;;;1.33;0.52;;;;;;;;;;4998284;28;20108;-57
2024/01/26 10:10:07;;;;;;;1.98;0.70;;;;;;;;;;5002225;28;20129;-59
2024/01/26 10:12:34;;;;;;;2.30;0.77;;;;;;;;;;5003180;28;20037;-58
2024/01/26 10:15:02;;;;;;;1.60;0.52;;;;;;;;;;4992635;28;20057;-57
2024/01/26 10:17:28;;;;;;;2.22;0.60;;;;;;;;;;4993837;28;20038;-54
2024/01/26 10:19:53;;;;;;;1.65;0.57;;;;;;;;;;5025658;28;21054;-59
2024/01/26 10:22:18;;;;;;;1.85;0.50;;;;;;;;;;4995111;28;20113;-60
2024/01/26 10:24:43;;;;;;;1.35;0.50;;;;;;;;;;4998122;28;20053;-60
2024/01/26 10:27:09;;;;;;;2.97;0.60;;;;;;;;;;4994959;28;20042;-59
2024/01/26 10:29:36;;;;;;;6.63;0.93;;;;;;;;;;4995828;28;20042;-56
2024/01/26 10:32:02;;;;;;;1.88;0.60;;;;;;;;;;4994001;28;20053;-60
2024/01/26 10:34:27;;;;;;;1.90;0.75;;;;;;;;;;5000045;28;20090;-56
2024/01/26 10:36:52;;;;;;;3.53;0.60;;;;;;;;;;5007607;28;20065;-63
2024/01/26 10:39:18;;;;;;;5.03;0.70;;;;;;;;;;5000343;28;20035;-54
2024/01/26 10:41:43;;;;;;;1.67;0.50;;;;;;;;;;4993160;28;20094;-59
2024/01/26 10:44:09;;;;;;;3.00;0.93;;;;;;;;;;4998307;28;20499;-63
2024/01/26 10:46:37;;;;;;;2.97;0.75;;;;;;;;;;5001945;28;20496;-58
2024/01/26 10:49:02;;;;;;;2.55;0.63;;;;;;;;;;5011391;28;20046;-56
2024/01/26 10:51:27;;;;;;;3.63;0.57;;;;;;;;;;4995427;28;20137;-56
2024/01/26 10:53:53;;;;;;;3.33;0.50;;;;;;;;;;4995916;28;20081;-55
2024/01/26 10:56:18;;;;;;;3.00;0.60;;;;;;;;;;5002043;28;20115;-61
2024/01/26 10:58:44;;;;;;;1.65;0.52;;;;;;;;;;4997746;28;20419;-60
2024/01/26 11:01:09;;;;;;;2.40;0.60;;;;;;;;;;4998268;28;20037;-61
2024/01/26 11:03:35;;;;;;;1.35;0.70;;;;;;;;;;5003558;28;20642;-61
2024/01/26 11:06:00;;;;;;;3.45;0.68;;;;;;;;;;5019220;28;20046;-64
2024/01/26 11:08:25;;;;;;;2.95;0.60;;;;;;;;;;5029688;28;20035;-61
2024/01/26 11:10:52;;;;;;;3.25;0.65;;;;;;;;;;4992529;28;20088;-59
2024/01/26 11:13:17;;;;;;;1.70;0.77;;;;;;;;;;4995343;28;20037;-61
2024/01/26 11:15:44;;;;;;;2.20;0.90;;;;;;;;;;4994684;28;20654;-59
2024/01/26 11:18:19;;;;;;;3.10;1.00;;;;;;;;;;5015922;28;20038;-60
2024/01/26 11:20:46;;;;;;;4.63;0.70;;;;;;;;;;4991116;28;20058;-59
2024/01/26 11:23:13;;;;;;;4.38;0.80;;;;;;;;;;4998345;28;20049;-57
2024/01/26 11:25:49;;;;;;;2.28;0.60;;;;;;;;;;5001865;28;20044;-58
2024/01/26 11:28:16;;;;;;;2.35;0.60;;;;;;;;;;5006910;28;20518;-55
2024/01/26 11:30:44;;;;;;;1.17;0.63;;;;;;;;;;5006769;28;20487;-59
2024/01/26 11:33:21;;;;;;;2.22;0.88;;;;;;;;;;5003683;28;20034;-58
2024/01/26 11:35:46;;;;;;;2.65;0.68;;;;;;;;;;5009822;28;20042;-57
2024/01/26 11:38:13;;;;;;;1.33;0.70;;;;;;;;;;5002578;28;20353;-57
2024/01/26 11:40:38;;;;;;;3.00;0.60;;;;;;;;;;4997924;28;20045;-55
2024/01/26 11:43:03;;;;;;;2.47;0.60;;;;;;;;;;5000337;28;20030;-56
2024/01/26 11:45:42;;;;;;;1.80;0.65;;;;;;;;;;4996978;28;20503;-58
2024/01/26 11:48:08;;;;;;;1.20;0.60;;;;;;;;;;4996549;28;20048;-55
2024/01/26 11:50:33;;;;;;;2.05;0.75;;;;;;;;;;4997274;28;20030;-56
2024/01/26 11:52:58;;;;;;;2.17;0.60;;;;;;;;;;5000033;28;20030;-57
2024/01/26 11:55:24;;;;;;;2.42;0.73;;;;;;;;;;5004815;28;20096;-56
2024/01/26 11:57:51;;;;;;;1.83;0.60;;;;;;;;;;5005744;28;20044;-56
2024/01/26 12:00:16;;;;;;;3.25;0.70;;;;;;;;;;5004338;28;20056;-55
2024/01/26 12:02:42;;;;;;;2.65;0.70;;;;;;;;;;5004247;28;20403;-58
2024/01/26 12:05:07;;;;;;;1.50;0.77;;;;;;;;;;5001753;28;20068;-56
2024/01/26 12:07:33;;;;;;;2.17;0.75;;;;;;;;;;5005992;28;20157;-55
2024/01/26 12:09:58;;;;;;;1.63;0.65;;;;;;;;;;5011630;28;20512;-56
2024/01/26 12:12:23;;;;;;;1.90;0.88;;;;;;;;;;5014928;28;20036;-55
2024/01/26 12:14:49;;;;;;;1.77;0.60;;;;;;;;;;4989126;28;20049;-60
2024/01/26 12:17:14;;;;;;;1.92;0.70;;;;;;;;;;4993787;28;20041;-55
2024/01/26 12:19:39;;;;;;;1.05;0.52;;;;;;;;;;5010477;28;20035;-57
2024/01/26 12:22:05;;;;;;;2.22;0.65;;;;;;;;;;4990857;28;20132;-58
2024/01/26 12:24:30;;;;;;;1.95;0.70;;;;;;;;;;4993591;28;20042;-56
2024/01/26 12:26:56;;;;;;;2.42;0.70;;;;;;;;;;5007749;28;20027;-54
2024/01/26 12:29:21;;;;;;;1.30;0.60;;;;;;;;;;4994898;28;20034;-55
2024/01/26 12:31:46;;;;;;;2.15;0.65;;;;;;;;;;5004085;28;20026;-59
2024/01/26 12:34:12;;;;;;;2.58;0.70;;;;;;;;;;4994942;28;20066;-58
2024/01/26 12:36:38;;;;;;;2.13;0.70;;;;;;;;;;4994199;28;20019;-56
2024/01/26 12:39:03;;;;;;;1.52;0.73;;;;;;;;;;4996154;28;20029;-58
2024/01/26 12:41:29;;;;;;;1.90;0.68;;;;;;;;;;4990859;28;20030;-55
2024/01/26 12:43:55;;;;;;;2.05;0.60;;;;;;;;;;4999836;28;20053;-57
2024/01/26 12:46:20;;;;;;;1.65;0.73;;;;;;;;;;4993522;28;20044;-57
2024/01/26 12:48:45;;;;;;;3.05;0.85;;;;;;;;;;4992682;28;20107;-57
2024/01/26 12:51:11;;;;;;;2.03;0.77;;;;;;;;;;4990149;28;20061;-57
2024/01/26 12:53:36;;;;;;;2.25;0.70;;;;;;;;;;4989888;28;20046;-55
2024/01/26 12:56:02;;;;;;;1.38;0.55;;;;;;;;;;4989167;28;20121;-56
2024/01/26 12:58:27;;;;;;;3.10;0.90;;;;;;;;;;4992564;28;20152;-58
2024/01/26 13:00:52;;;;;;;1.80;0.73;;;;;;;;;;4992809;28;20049;-59
2024/01/26 13:03:18;;;;;;;2.50;0.80;;;;;;;;;;4995144;28;20477;-57
2024/01/26 13:05:44;;;;;;;3.17;0.80;;;;;;;;;;4992956;28;20500;-57
2024/01/26 13:08:09;;;;;;;2.35;0.70;;;;;;;;;;4990102;28;20154;-56
2024/01/26 13:10:34;;;;;;;1.83;0.75;;;;;;;;;;4991363;28;20045;-58
2024/01/26 13:13:00;;;;;;;1.63;0.63;;;;;;;;;;4992556;28;20328;-57
2024/01/26 13:15:26;;;;;;;1.80;0.75;;;;;;;;;;4996350;28;20049;-59
2024/01/26 13:17:51;;;;;;;1.75;0.73;;;;;;;;;;4996113;28;20061;-59
2024/01/26 13:20:19;;;;;;;1.83;0.70;;;;;;;;;;5004899;28;20061;-57
2024/01/26 13:22:44;;;;;;;1.52;0.88;;;;;;;;;;5010841;28;20037;-63
2024/01/26 13:25:09;;;;;;;1.58;0.70;;;;;;;;;;5008745;28;20064;-59
2024/01/26 13:27:35;;;;;;;1.63;0.70;;;;;;;;;;5003380;28;20041;-61
2024/01/26 13:30:00;;;;;;;1.45;0.52;;;;;;;;;;5007383;28;20061;-59
2024/01/26 13:32:25;;;;;;;1.52;0.60;;;;;;;;;;5014061;28;20041;-57
2024/01/26 13:34:50;;;;;;;2.35;0.80;;;;;;;;;;4987529;28;20125;-59
2024/01/26 13:37:16;;;;;;;1.77;0.80;;;;;;;;;;4979886;28;20054;-59
2024/01/26 13:39:41;;;;;;;2.17;0.68;;;;;;;;;;4996391;28;20552;-59
2024/01/26 13:42:07;;;;;;;2.00;0.80;;;;;;;;;;4995518;28;20035;-56
2024/01/26 13:44:32;;;;;;;2.53;0.82;;;;;;;;;;5005114;28;20064;-59
2024/01/26 13:46:57;;;;;;;1.38;0.55;;;;;;;;;;5008617;28;20054;-59
2024/01/26 13:49:23;;;;;;;1.77;0.60;;;;;;;;;;5010207;28;20034;-61
2024/01/26 13:51:48;;;;;;;1.52;0.60;;;;;;;;;;5006070;28;20105;-58
2024/01/26 13:54:14;;;;;;;1.83;0.65;;;;;;;;;;5009732;28;20041;-57
2024/01/26 13:56:39;;;;;;;3.28;0.95;;;;;;;;;;5009974;28;20392;-56
2024/01/26 13:59:05;;;;;;;2.83;0.80;;;;;;;;;;5009456;28;20053;-55
2024/01/26 14:01:30;;;;;;;1.48;0.70;;;;;;;;;;5009583;28;20124;-56
2024/01/26 14:03:56;;;;;;;2.53;0.90;;;;;;;;;;5008040;28;20041;-59
2024/01/26 14:06:22;;;;;;;1.65;0.70;;;;;;;;;;5009178;28;20034;-59
2024/01/26 14:08:47;;;;;;;2.35;0.88;;;;;;;;;;5009534;28;20041;-56
2024/01/26 14:11:13;;;;;;;2.05;0.70;;;;;;;;;;5014097;28;20435;-56
2024/01/26 14:13:38;;;;;;;1.65;0.68;;;;;;;;;;5006314;28;20447;-55
2024/01/26 14:16:07;;;;;;;2.33;0.75;;;;;;;;;;5003346;28;20140;-59
2024/01/26 14:18:33;;;;;;;3.05;0.80;;;;;;;;;;5008596;28;20099;-58
2024/01/26 14:20:59;;;;;;;1.75;0.65;;;;;;;;;;5007989;28;20061;-58
2024/01/26 14:23:24;;;;;;;2.10;0.98;;;;;;;;;;5009635;28;20111;-59
2024/01/26 14:25:54;;;;;;;2.17;0.70;;;;;;;;;;5007356;28;20025;-59
2024/01/26 14:28:19;;;;;;;1.55;0.60;;;;;;;;;;5001393;28;20491;-57
2024/01/26 14:30:48;;;;;;;2.17;0.90;;;;;;;;;;5006003;28;20041;-58
2024/01/26 14:33:13;;;;;;;1.98;0.98;;;;;;;;;;5008845;28;20132;-56